createdAt,value
2022-11-28T00:02:09.888Z,7.40
2022-11-28T00:05:13.535Z,7.40
2022-11-28T00:08:16.700Z,7.30
2022-11-28T00:11:20.300Z,7.30
2022-11-28T00:14:24.779Z,7.30
2022-11-28T00:17:27.722Z,7.40
2022-11-28T00:20:31.622Z,7.30
2022-11-28T00:23:35.447Z,7.40
2022-11-28T00:26:40.558Z,7.40
2022-11-28T00:29:44.866Z,7.30
2022-11-28T00:32:47.805Z,7.30
2022-11-28T00:35:50.963Z,7.30
2022-11-28T00:38:53.972Z,7.30
2022-11-28T00:41:56.912Z,7.30
2022-11-28T00:45:01.206Z,7.30
2022-11-28T00:48:04.336Z,7.30
2022-11-28T00:51:09.467Z,7.30
2022-11-28T00:54:12.576Z,7.30
2022-11-28T00:57:15.488Z,7.20
2022-11-28T01:00:20.966Z,7.20
2022-11-28T01:03:23.900Z,7.30
2022-11-28T01:06:28.633Z,7.30
2022-11-28T01:09:31.583Z,7.20
2022-11-28T01:12:34.550Z,7.20
2022-11-28T01:15:44.092Z,7.30
2022-11-28T01:18:47.101Z,7.30
2022-11-28T01:21:50.441Z,7.30
2022-11-28T01:24:53.522Z,7.20
2022-11-28T01:27:56.475Z,7.30
2022-11-28T01:31:06.452Z,7.30
2022-11-28T01:34:09.498Z,7.20
2022-11-28T01:37:12.452Z,7.20
2022-11-28T01:40:15.717Z,7.20
2022-11-28T01:43:18.892Z,7.20
2022-11-28T01:46:23.186Z,7.20
2022-11-28T01:49:31.010Z,7.30
2022-11-28T01:52:36.846Z,7.20
2022-11-28T01:55:47.588Z,7.20
2022-11-28T01:58:55.577Z,7.20
2022-11-28T02:02:00.009Z,7.20
2022-11-28T02:05:03.596Z,7.30
2022-11-28T02:08:07.010Z,7.30
2022-11-28T02:11:34.090Z,7.20
2022-11-28T02:14:56.467Z,7.10
2022-11-28T02:18:22.712Z,7.10
2022-11-28T02:21:42.977Z,7.00
2022-11-28T02:24:57.269Z,7.00
2022-11-28T02:28:39.001Z,7.00
2022-11-28T02:32:05.260Z,6.90
2022-11-28T02:35:12.939Z,6.90
2022-11-28T02:38:22.844Z,6.90
2022-11-28T02:41:32.244Z,6.90
2022-11-28T02:44:44.131Z,6.90
2022-11-28T02:47:52.001Z,7.00
2022-11-28T02:51:00.606Z,6.90
2022-11-28T02:54:06.595Z,7.10
2022-11-28T02:57:10.024Z,7.00
2022-11-28T03:00:29.855Z,6.90
2022-11-28T03:04:08.408Z,6.90
2022-11-28T03:07:21.106Z,7.00
2022-11-28T03:10:30.427Z,7.00
2022-11-28T03:13:41.306Z,7.00
2022-11-28T03:16:52.413Z,7.00
2022-11-28T03:20:11.728Z,7.00
2022-11-28T03:23:17.299Z,7.00
2022-11-28T03:26:27.875Z,7.00
2022-11-28T03:29:35.788Z,7.00
2022-11-28T03:32:41.335Z,7.10
2022-11-28T03:35:49.289Z,7.10
2022-11-28T03:38:57.773Z,7.00
2022-11-28T03:42:06.080Z,7.10
2022-11-28T03:45:14.085Z,7.10
2022-11-28T03:48:22.400Z,7.10
2022-11-28T03:51:31.959Z,7.20
2022-11-28T03:54:37.417Z,7.20
2022-11-28T03:57:45.775Z,7.20
2022-11-28T04:00:58.456Z,7.20
2022-11-28T04:04:12.122Z,7.10
2022-11-28T04:07:24.884Z,7.00
2022-11-28T04:10:32.735Z,7.00
2022-11-28T04:13:40.840Z,6.90
2022-11-28T04:16:53.987Z,6.90
2022-11-28T04:20:04.808Z,6.90
2022-11-28T04:23:12.771Z,6.90
2022-11-28T04:26:19.448Z,6.90
2022-11-28T04:29:25.280Z,6.90
2022-11-28T04:32:31.051Z,6.80
2022-11-28T04:35:37.305Z,6.80
2022-11-28T04:38:43.370Z,6.80
2022-11-28T04:41:52.784Z,6.80
2022-11-28T04:45:00.125Z,6.60
2022-11-28T04:48:03.579Z,6.60
2022-11-28T04:51:15.853Z,6.70
2022-11-28T04:54:28.424Z,6.70
2022-11-28T04:57:35.700Z,6.70
2022-11-28T05:00:39.298Z,6.70
2022-11-28T05:03:43.026Z,6.80
2022-11-28T05:06:46.249Z,6.80
2022-11-28T05:09:50.811Z,6.80
2022-11-28T05:12:54.112Z,6.70
2022-11-28T05:16:00.700Z,6.80
2022-11-28T05:19:03.716Z,6.80
2022-11-28T05:22:06.656Z,6.80
2022-11-28T05:25:11.230Z,6.80
2022-11-28T05:28:14.156Z,6.80
2022-11-28T05:31:18.913Z,6.80
2022-11-28T05:34:22.066Z,6.70
2022-11-28T05:37:25.425Z,6.70
2022-11-28T05:40:29.752Z,6.70
2022-11-28T05:43:33.165Z,6.70
2022-11-28T05:46:36.149Z,6.70
2022-11-28T05:49:39.117Z,6.70
2022-11-28T05:52:42.050Z,6.60
2022-11-28T05:55:46.997Z,6.70
2022-11-28T05:58:50.688Z,6.70
2022-11-28T06:01:53.711Z,6.70
2022-11-28T06:04:56.758Z,6.70
2022-11-28T06:07:59.814Z,6.70
2022-11-28T06:11:04.185Z,6.60
2022-11-28T06:14:07.120Z,6.70
2022-11-28T06:17:10.146Z,6.80
2022-11-28T06:20:13.478Z,6.70
2022-11-28T06:23:16.431Z,6.70
2022-11-28T06:26:22.823Z,6.70
2022-11-28T06:29:25.827Z,6.70
2022-11-28T06:32:28.806Z,6.70
2022-11-28T06:35:31.860Z,6.70
2022-11-28T06:38:35.598Z,6.80
2022-11-28T06:41:40.178Z,6.70
2022-11-28T06:44:43.145Z,6.70
2022-11-28T06:47:46.119Z,6.70
2022-11-28T06:50:49.632Z,6.60
2022-11-28T06:53:52.589Z,6.70
2022-11-28T06:56:56.869Z,6.80
2022-11-28T07:00:00.043Z,6.80
2022-11-28T07:03:03.188Z,6.80
2022-11-28T07:06:08.561Z,6.80
2022-11-28T07:09:11.554Z,6.80
2022-11-28T07:12:16.228Z,6.70
2022-11-28T07:15:19.272Z,6.80
2022-11-28T07:18:22.219Z,6.80
2022-11-28T07:21:25.760Z,6.80
2022-11-28T07:24:30.053Z,6.90
2022-11-28T07:27:34.338Z,6.90
2022-11-28T07:30:37.373Z,6.90
2022-11-28T07:33:41.387Z,6.80
2022-11-28T07:36:44.393Z,6.70
2022-11-28T07:39:47.630Z,6.70
2022-11-28T07:42:52.230Z,6.70
2022-11-28T07:46:01.086Z,6.70
2022-11-28T07:49:05.251Z,6.70
2022-11-28T07:52:08.212Z,6.70
2022-11-28T07:55:11.185Z,6.70
2022-11-28T07:58:15.489Z,6.70
2022-11-28T08:01:20.414Z,6.70
2022-11-28T08:04:23.821Z,6.60
2022-11-28T08:07:26.937Z,6.70
2022-11-28T08:10:30.200Z,6.80
2022-11-28T08:13:35.028Z,6.70
2022-11-28T08:16:41.199Z,6.80
2022-11-28T08:19:44.209Z,6.70
2022-11-28T08:22:47.223Z,6.80
2022-11-28T08:25:50.194Z,6.70
2022-11-28T08:28:55.189Z,6.70
2022-11-28T08:31:58.155Z,6.70
2022-11-28T08:35:01.111Z,6.80
2022-11-28T08:38:04.584Z,6.90
2022-11-28T08:41:10.565Z,6.80
2022-11-28T08:44:14.903Z,6.90
2022-11-28T08:47:17.897Z,6.90
2022-11-28T08:50:20.869Z,7.00
2022-11-28T08:53:24.120Z,7.00
2022-11-28T08:56:27.086Z,7.10
2022-11-28T08:59:31.409Z,7.00
2022-11-28T09:02:34.405Z,7.00
2022-11-28T09:05:37.370Z,7.10
2022-11-28T09:08:40.368Z,7.10
2022-11-28T09:11:43.366Z,7.10
2022-11-28T09:14:47.665Z,7.10
2022-11-28T09:17:50.638Z,7.10
2022-11-28T09:20:58.720Z,7.00
2022-11-28T09:24:01.662Z,7.10
2022-11-28T09:27:04.719Z,7.10
2022-11-28T09:30:10.456Z,7.10
2022-11-28T09:33:13.547Z,7.10
2022-11-28T09:36:19.051Z,7.10
2022-11-28T09:39:22.099Z,7.10
2022-11-28T09:42:32.985Z,7.10
2022-11-28T09:45:37.332Z,7.20
2022-11-28T09:48:45.830Z,7.10
2022-11-28T09:51:53.815Z,7.10
2022-11-28T09:55:06.282Z,7.10
2022-11-28T09:58:16.513Z,7.20
2022-11-28T10:01:29.038Z,7.20
2022-11-28T10:04:40.674Z,7.20
2022-11-28T10:07:55.429Z,7.20
2022-11-28T10:11:03.647Z,7.30
2022-11-28T10:14:19.603Z,7.30
2022-11-28T10:17:35.007Z,7.40
2022-11-28T10:20:40.496Z,7.30
2022-11-28T10:23:46.188Z,7.30
2022-11-28T10:26:52.172Z,7.30
2022-11-28T10:30:02.182Z,7.30
2022-11-28T10:33:16.819Z,7.30
2022-11-28T10:36:27.523Z,7.30
2022-11-28T10:39:30.551Z,7.30
2022-11-28T10:42:40.938Z,7.30
2022-11-28T10:45:53.756Z,7.10
2022-11-28T10:49:09.612Z,7.10
2022-11-28T10:52:19.709Z,7.10
2022-11-28T10:55:30.848Z,7.20
2022-11-28T10:58:38.604Z,7.20
2022-11-28T11:01:45.997Z,7.20
2022-11-28T11:04:54.287Z,7.20
2022-11-28T11:07:59.467Z,7.30
2022-11-28T11:11:06.497Z,7.30
2022-11-28T11:14:11.872Z,7.20
2022-11-28T11:17:35.920Z,7.10
2022-11-28T11:20:41.362Z,7.20
2022-11-28T11:23:44.931Z,7.20
2022-11-28T11:26:49.968Z,7.30
2022-11-28T11:29:53.869Z,7.20
2022-11-28T11:32:58.260Z,7.20
2022-11-28T11:36:05.059Z,7.20
2022-11-28T11:39:22.317Z,7.10
2022-11-28T11:42:27.686Z,6.90
2022-11-28T11:45:33.321Z,6.70
2022-11-28T11:48:37.941Z,6.60
2022-11-28T11:51:42.261Z,6.50
2022-11-28T11:54:57.282Z,6.50
2022-11-28T11:58:05.650Z,6.40
2022-11-28T12:01:09.607Z,6.40
2022-11-28T12:04:43.902Z,6.40
2022-11-28T12:07:54.984Z,6.40
2022-11-28T12:11:09.409Z,6.50
2022-11-28T12:14:27.505Z,6.50
2022-11-28T12:17:53.377Z,6.50
2022-11-28T12:21:12.227Z,6.50
2022-11-28T12:24:23.014Z,6.50
2022-11-28T12:27:35.294Z,6.50
2022-11-28T12:30:59.510Z,6.60
2022-11-28T12:34:14.598Z,6.50
2022-11-28T12:38:02.629Z,6.40
2022-11-28T12:41:11.227Z,6.50
2022-11-28T12:44:25.806Z,6.40
2022-11-28T12:47:41.274Z,6.40
2022-11-28T12:50:47.999Z,6.50
2022-11-28T12:54:06.302Z,6.50
2022-11-28T12:57:17.990Z,6.40
2022-11-28T13:00:23.301Z,6.40
2022-11-28T13:03:40.966Z,6.40
2022-11-28T13:06:51.116Z,6.40
2022-11-28T13:10:04.016Z,6.50
2022-11-28T13:13:14.034Z,6.50
2022-11-28T13:16:27.263Z,6.40
2022-11-28T13:19:37.747Z,6.40
2022-11-28T13:22:55.932Z,6.30
2022-11-28T13:26:05.590Z,6.30
2022-11-28T13:29:21.091Z,6.30
2022-11-28T13:32:33.174Z,6.40
2022-11-28T13:35:36.849Z,6.40
2022-11-28T13:39:08.133Z,6.40
2022-11-28T13:42:58.928Z,6.20
2022-11-28T13:45:48.125Z,6.10
2022-11-28T13:49:20.558Z,5.90
2022-11-28T13:52:34.084Z,5.90
2022-11-28T13:55:44.644Z,5.90
2022-11-28T13:58:52.776Z,5.90
2022-11-28T14:02:00.732Z,5.80
2022-11-28T14:05:05.146Z,6.00
2022-11-28T14:08:08.417Z,5.90
2022-11-28T14:11:54.231Z,5.90
2022-11-28T14:15:10.272Z,5.80
2022-11-28T14:18:56.781Z,5.80
2022-11-28T14:22:09.136Z,5.80
2022-11-28T14:25:19.459Z,5.80
2022-11-28T14:28:26.957Z,5.80
2022-11-28T14:31:32.840Z,5.80
2022-11-28T14:34:43.404Z,5.80
2022-11-28T14:37:52.817Z,5.90
2022-11-28T14:41:05.998Z,5.90
2022-11-28T14:44:46.325Z,5.90
2022-11-28T14:48:07.933Z,6.00
2022-11-28T14:51:12.228Z,6.00
2022-11-28T14:54:22.719Z,6.00
2022-11-28T14:57:32.541Z,5.90
2022-11-28T15:00:47.210Z,5.90
2022-11-28T15:03:57.947Z,6.00
2022-11-28T15:07:04.172Z,5.90
2022-11-28T15:10:11.168Z,5.90
2022-11-28T15:13:36.336Z,6.00
2022-11-28T15:16:49.662Z,5.90
2022-11-28T15:19:53.959Z,5.80
2022-11-28T15:22:58.298Z,5.80
2022-11-28T15:26:02.171Z,5.90
2022-11-28T15:29:12.508Z,5.90
2022-11-28T15:32:16.603Z,5.80
2022-11-28T15:35:19.767Z,5.80
2022-11-28T15:38:24.708Z,5.90
2022-11-28T15:41:28.827Z,5.90
2022-11-28T15:44:32.485Z,5.90
2022-11-28T15:47:35.831Z,5.90
2022-11-28T15:50:38.818Z,6.00
2022-11-28T15:53:43.116Z,6.00
2022-11-28T15:56:57.504Z,5.90
2022-11-28T16:00:02.947Z,6.00
2022-11-28T16:03:06.620Z,5.90
2022-11-28T16:06:09.860Z,6.00
2022-11-28T16:09:27.661Z,5.90
2022-11-28T16:12:30.956Z,6.00
2022-11-28T16:15:33.981Z,6.00
2022-11-28T16:18:36.976Z,6.00
2022-11-28T16:21:46.062Z,6.00
2022-11-28T16:24:51.802Z,6.10
2022-11-28T16:27:57.294Z,6.10
2022-11-28T16:31:00.973Z,6.10
2022-11-28T16:34:04.400Z,6.10
2022-11-28T16:37:11.781Z,6.20
2022-11-28T16:40:21.601Z,6.00
2022-11-28T16:43:28.041Z,6.00
2022-11-28T16:46:34.851Z,6.00
2022-11-28T16:49:40.315Z,6.10
2022-11-28T16:52:47.098Z,6.10
2022-11-28T16:55:51.737Z,6.10
2022-11-28T16:58:59.578Z,6.20
2022-11-28T17:02:02.808Z,6.20
2022-11-28T17:05:06.304Z,6.10
2022-11-28T17:08:09.461Z,6.10
2022-11-28T17:11:16.590Z,6.10
2022-11-28T17:14:19.544Z,6.10
2022-11-28T17:17:24.278Z,6.20
2022-11-28T17:20:27.385Z,6.20
2022-11-28T17:23:30.820Z,6.10
2022-11-28T17:26:35.129Z,6.10
2022-11-28T17:29:38.084Z,6.10
2022-11-28T17:32:41.031Z,6.10
2022-11-28T17:35:46.933Z,6.20
2022-11-28T17:38:49.859Z,6.20
2022-11-28T17:41:54.346Z,6.20
2022-11-28T17:44:57.264Z,6.20
2022-11-28T17:48:00.211Z,6.10
2022-11-28T17:51:03.701Z,6.00
2022-11-28T17:54:06.954Z,5.90
2022-11-28T17:57:11.353Z,5.90
2022-11-28T18:00:16.717Z,6.00
2022-11-28T18:03:19.925Z,6.00
2022-11-28T18:06:23.691Z,6.00
2022-11-28T18:09:26.677Z,6.00
2022-11-28T18:12:30.970Z,6.00
2022-11-28T18:15:35.639Z,6.00
2022-11-28T18:18:39.482Z,6.10
2022-11-28T18:21:42.410Z,6.20
2022-11-28T18:24:45.353Z,6.10
2022-11-28T18:27:49.662Z,6.10
2022-11-28T18:30:52.583Z,6.10
2022-11-28T18:34:01.644Z,6.20
2022-11-28T18:37:05.317Z,6.20
2022-11-28T18:40:09.709Z,6.30
2022-11-28T18:43:14.098Z,6.20
2022-11-28T18:46:19.278Z,6.40
2022-11-28T18:49:22.341Z,6.30
2022-11-28T18:52:25.368Z,6.10
2022-11-28T18:55:29.603Z,6.00
2022-11-28T18:58:36.337Z,6.10
2022-11-28T19:01:39.296Z,6.10
2022-11-28T19:04:42.277Z,6.20
2022-11-28T19:07:45.229Z,6.20
2022-11-28T19:10:48.243Z,6.10
2022-11-28T19:13:53.905Z,6.10
2022-11-28T19:16:56.880Z,6.20
2022-11-28T19:19:59.852Z,6.20
2022-11-28T19:23:02.950Z,6.20
2022-11-28T19:26:07.810Z,6.30
2022-11-28T19:29:12.640Z,6.10
2022-11-28T19:32:16.933Z,6.10
2022-11-28T19:35:19.884Z,6.20
2022-11-28T19:38:22.795Z,6.20
2022-11-28T19:41:26.038Z,6.10
2022-11-28T19:44:30.572Z,6.30
2022-11-28T19:47:33.496Z,6.30
2022-11-28T19:50:36.463Z,6.30
2022-11-28T19:53:42.216Z,6.30
2022-11-28T19:56:45.288Z,6.30
2022-11-28T19:59:49.582Z,6.40
2022-11-28T20:02:52.509Z,6.40
2022-11-28T20:05:55.809Z,6.40
2022-11-28T20:09:01.492Z,6.30
2022-11-28T20:12:04.797Z,6.30
2022-11-28T20:15:15.194Z,6.30
2022-11-28T20:18:21.010Z,6.40
2022-11-28T20:21:24.148Z,6.30
2022-11-28T20:24:27.087Z,6.30
2022-11-28T20:27:30.149Z,6.40
2022-11-28T20:30:36.868Z,6.40
2022-11-28T20:33:39.944Z,6.30
2022-11-28T20:36:43.218Z,6.30
2022-11-28T20:39:46.679Z,6.20
2022-11-28T20:42:49.760Z,6.20
2022-11-28T20:45:54.111Z,6.20
2022-11-28T20:48:59.039Z,6.30
2022-11-28T20:52:01.984Z,6.30
2022-11-28T20:55:05.535Z,6.40
2022-11-28T20:58:08.583Z,6.40
2022-11-28T21:01:16.668Z,6.40
2022-11-28T21:04:20.210Z,6.30
2022-11-28T21:07:25.163Z,6.40
2022-11-28T21:10:31.822Z,6.40
2022-11-28T21:13:35.179Z,6.30
2022-11-28T21:16:39.496Z,6.30
2022-11-28T21:19:42.919Z,6.30
2022-11-28T21:22:46.093Z,6.40
2022-11-28T21:25:49.043Z,6.40
2022-11-28T21:28:54.348Z,6.40
2022-11-28T21:31:58.667Z,6.40
2022-11-28T21:35:04.601Z,6.40
2022-11-28T21:38:08.621Z,6.30
2022-11-28T21:41:11.659Z,6.30
2022-11-28T21:44:14.604Z,6.30
2022-11-28T21:47:18.897Z,6.30
2022-11-28T21:50:21.922Z,6.30
2022-11-28T21:53:25.279Z,6.30
2022-11-28T21:56:28.474Z,6.40
2022-11-28T21:59:32.445Z,6.40
2022-11-28T22:02:36.817Z,6.40
2022-11-28T22:05:39.857Z,6.30
2022-11-28T22:08:42.992Z,6.20
2022-11-28T22:11:45.948Z,6.30
2022-11-28T22:14:49.244Z,6.40
2022-11-28T22:17:53.926Z,6.40
2022-11-28T22:21:06.492Z,6.30
2022-11-28T22:24:12.409Z,6.40
2022-11-28T22:27:15.667Z,6.30
2022-11-28T22:30:18.638Z,6.30
2022-11-28T22:33:22.933Z,6.30
2022-11-28T22:36:25.904Z,6.40
2022-11-28T22:39:28.952Z,6.40
2022-11-28T22:42:31.984Z,6.40
2022-11-28T22:45:35.064Z,6.40
2022-11-28T22:48:40.114Z,6.40
2022-11-28T22:51:43.292Z,6.40
2022-11-28T22:54:46.484Z,6.40
2022-11-28T22:57:49.648Z,6.30
2022-11-28T23:00:52.623Z,6.30
2022-11-28T23:03:57.676Z,6.30
2022-11-28T23:07:01.045Z,6.40
2022-11-28T23:10:04.602Z,6.30
2022-11-28T23:13:08.027Z,6.30
2022-11-28T23:16:13.403Z,6.30
2022-11-28T23:19:19.928Z,6.20
2022-11-28T23:22:22.911Z,6.30
2022-11-28T23:25:25.878Z,6.30
2022-11-28T23:28:30.030Z,6.30
2022-11-28T23:31:34.454Z,6.20
2022-11-28T23:34:38.744Z,6.30
2022-11-28T23:37:41.770Z,6.40
2022-11-28T23:40:44.858Z,6.40
2022-11-28T23:43:48.173Z,6.30
2022-11-28T23:46:51.299Z,6.20
2022-11-28T23:49:55.595Z,6.30
2022-11-28T23:52:58.556Z,6.30
2022-11-28T23:56:04.444Z,6.30
2022-11-28T23:59:09.284Z,6.20
